OKPRC LKPR-LZIB
Flight info
| Callsign | OKPRC |
|---|---|
| Flight time | 0h 49m |
| Altitude | 23000 |
| Route | VOZ DCT LIKSA DCT PEPIK DCT BERVA |
| Aircraft | PC12/L-SDFGRWY/S |
Departure
| Time | 2026-05-04 17:46 |
|---|---|
| Airport | Václav Havel Airport Prague (LKPR) |
Arrival
| Time | 2026-05-04 18:35 |
|---|---|
| Airport | M. R. Štefánik Airport (LZIB) |
| Time | Latitude | Longitude | Altitude | Speed | Heading |
|---|---|---|---|---|---|
| 2026-05-04 17:33 | 50.09922 | 14.28554 | 1209 ft | 0 kts | 187° |
| 2026-05-04 17:42 | 50.09919 | 14.28553 | 1209 ft | 2 kts | 184° |
| 2026-05-04 17:42 | 50.09886 | 14.28537 | 1209 ft | 5 kts | 223° |
| 2026-05-04 17:42 | 50.09880 | 14.28477 | 1209 ft | 9 kts | 266° |
| 2026-05-04 17:42 | 50.09855 | 14.28413 | 1209 ft | 5 kts | 181° |
| 2026-05-04 17:43 | 50.09805 | 14.28430 | 1209 ft | 10 kts | 185° |
| 2026-05-04 17:43 | 50.09765 | 14.28380 | 1209 ft | 5 kts | 269° |
| 2026-05-04 17:43 | 50.09757 | 14.28288 | 1209 ft | 13 kts | 258° |
| 2026-05-04 17:43 | 50.09737 | 14.28123 | 1209 ft | 18 kts | 258° |
| 2026-05-04 17:44 | 50.09711 | 14.27930 | 1208 ft | 19 kts | 258° |
| 2026-05-04 17:44 | 50.09678 | 14.27723 | 1204 ft | 17 kts | 233° |
| 2026-05-04 17:44 | 50.09593 | 14.27629 | 1207 ft | 14 kts | 212° |
| 2026-05-04 17:44 | 50.09513 | 14.27537 | 1209 ft | 15 kts | 217° |
| 2026-05-04 17:45 | 50.09426 | 14.27437 | 1206 ft | 14 kts | 220° |
| 2026-05-04 17:45 | 50.09422 | 14.27387 | 1206 ft | 0 kts | 307° |
| 2026-05-04 17:45 | 50.09439 | 14.27353 | 1205 ft | 14 kts | 310° |
| 2026-05-04 17:45 | 50.09602 | 14.27021 | 1203 ft | 66 kts | 307° |
| 2026-05-04 17:46 | 50.09978 | 14.26250 | 1242 ft | 107 kts | 309° |
| 2026-05-04 17:46 | 50.10435 | 14.25274 | 1616 ft | 113 kts | 310° |
| 2026-05-04 17:46 | 50.10802 | 14.24146 | 1939 ft | 121 kts | 290° |
| 2026-05-04 17:46 | 50.10713 | 14.22820 | 2089 ft | 128 kts | 256° |
| 2026-05-04 17:47 | 50.10167 | 14.21736 | 2244 ft | 133 kts | 221° |
| 2026-05-04 17:47 | 50.09320 | 14.21233 | 2528 ft | 134 kts | 189° |
| 2026-05-04 17:47 | 50.08495 | 14.21715 | 2945 ft | 127 kts | 135° |
| 2026-05-04 17:47 | 50.07791 | 14.22584 | 3269 ft | 130 kts | 156° |
| 2026-05-04 17:48 | 50.06900 | 14.22927 | 3631 ft | 131 kts | 172° |
| 2026-05-04 17:48 | 50.06003 | 14.23144 | 3994 ft | 132 kts | 173° |
| 2026-05-04 17:48 | 50.05108 | 14.23465 | 4336 ft | 134 kts | 150° |
| 2026-05-04 17:48 | 50.04560 | 14.24600 | 4733 ft | 134 kts | 116° |
| 2026-05-04 17:49 | 50.04104 | 14.25875 | 5065 ft | 136 kts | 124° |
| 2026-05-04 17:49 | 50.03596 | 14.27134 | 5415 ft | 138 kts | 126° |
| 2026-05-04 17:49 | 50.03082 | 14.28399 | 5771 ft | 139 kts | 126° |
| 2026-05-04 17:49 | 50.02562 | 14.29676 | 6143 ft | 140 kts | 126° |
| 2026-05-04 17:50 | 50.02036 | 14.30963 | 6499 ft | 141 kts | 127° |
| 2026-05-04 17:50 | 50.01506 | 14.32262 | 6857 ft | 144 kts | 127° |
| 2026-05-04 17:50 | 50.00972 | 14.33578 | 7276 ft | 144 kts | 127° |
| 2026-05-04 17:50 | 50.00430 | 14.34905 | 7691 ft | 146 kts | 127° |
| 2026-05-04 17:51 | 49.99880 | 14.36251 | 8116 ft | 148 kts | 128° |
| 2026-05-04 17:51 | 49.99324 | 14.37609 | 8533 ft | 150 kts | 128° |
| 2026-05-04 17:51 | 49.98750 | 14.39002 | 8925 ft | 156 kts | 129° |
| 2026-05-04 17:51 | 49.98157 | 14.40442 | 9324 ft | 160 kts | 128° |
| 2026-05-04 17:52 | 49.97561 | 14.41903 | 9781 ft | 162 kts | 129° |
| 2026-05-04 17:52 | 49.96953 | 14.43389 | 10178 ft | 163 kts | 129° |
| 2026-05-04 17:52 | 49.96339 | 14.44883 | 10581 ft | 164 kts | 129° |
| 2026-05-04 17:52 | 49.95723 | 14.46382 | 10980 ft | 165 kts | 129° |
| 2026-05-04 17:53 | 49.95105 | 14.47885 | 11372 ft | 166 kts | 129° |
| 2026-05-04 17:53 | 49.94483 | 14.49400 | 11770 ft | 167 kts | 129° |
| 2026-05-04 17:53 | 49.93855 | 14.50929 | 12170 ft | 167 kts | 129° |
| 2026-05-04 17:53 | 49.93228 | 14.52452 | 12565 ft | 168 kts | 130° |
| 2026-05-04 17:54 | 49.92597 | 14.53984 | 12973 ft | 169 kts | 129° |
| 2026-05-04 17:54 | 49.91959 | 14.55535 | 13373 ft | 170 kts | 129° |
| 2026-05-04 17:54 | 49.91317 | 14.57092 | 13768 ft | 172 kts | 130° |
| 2026-05-04 17:54 | 49.90670 | 14.58660 | 14131 ft | 172 kts | 130° |
| 2026-05-04 17:55 | 49.90021 | 14.60231 | 14482 ft | 174 kts | 130° |
| 2026-05-04 17:55 | 49.89374 | 14.61796 | 14821 ft | 175 kts | 129° |
| 2026-05-04 17:55 | 49.88709 | 14.63407 | 15174 ft | 176 kts | 129° |
| 2026-05-04 17:55 | 49.88049 | 14.65010 | 15540 ft | 177 kts | 129° |
| 2026-05-04 17:56 | 49.87379 | 14.66638 | 15965 ft | 177 kts | 129° |
| 2026-05-04 17:56 | 49.86711 | 14.68255 | 16368 ft | 179 kts | 129° |
| 2026-05-04 17:56 | 49.86036 | 14.69881 | 16773 ft | 180 kts | 129° |
| 2026-05-04 17:56 | 49.85360 | 14.71513 | 17181 ft | 181 kts | 129° |
| 2026-05-04 17:57 | 49.84674 | 14.73164 | 17591 ft | 182 kts | 129° |
| 2026-05-04 17:57 | 49.83997 | 14.74796 | 17980 ft | 183 kts | 129° |
| 2026-05-04 17:57 | 49.83302 | 14.76467 | 18372 ft | 184 kts | 129° |
| 2026-05-04 17:57 | 49.82607 | 14.78138 | 18698 ft | 185 kts | 129° |
| 2026-05-04 17:58 | 49.81906 | 14.79825 | 19042 ft | 187 kts | 129° |
| 2026-05-04 17:58 | 49.81199 | 14.81523 | 19383 ft | 188 kts | 129° |
| 2026-05-04 17:58 | 49.80489 | 14.83228 | 19726 ft | 189 kts | 129° |
| 2026-05-04 17:58 | 49.79774 | 14.84942 | 20061 ft | 190 kts | 129° |
| 2026-05-04 17:59 | 49.79056 | 14.86664 | 20393 ft | 191 kts | 129° |
| 2026-05-04 17:59 | 49.78333 | 14.88395 | 20735 ft | 192 kts | 129° |
| 2026-05-04 17:59 | 49.76870 | 14.91898 | 21416 ft | 195 kts | 129° |
| 2026-05-04 18:00 | 49.76382 | 14.93069 | 21647 ft | 195 kts | 129° |
| 2026-05-04 18:00 | 49.75643 | 14.94841 | 21977 ft | 197 kts | 129° |
| 2026-05-04 18:00 | 49.74896 | 14.96625 | 22329 ft | 198 kts | 129° |
| 2026-05-04 18:00 | 49.74145 | 14.98416 | 22676 ft | 199 kts | 129° |
| 2026-05-04 18:01 | 49.73385 | 15.00226 | 22939 ft | 205 kts | 129° |
| 2026-05-04 18:01 | 49.72574 | 15.02146 | 22943 ft | 221 kts | 129° |
| 2026-05-04 18:01 | 49.71711 | 15.04202 | 22947 ft | 234 kts | 128° |
| 2026-05-04 18:02 | 49.69864 | 15.08614 | 22952 ft | 253 kts | 127° |
| 2026-05-04 18:02 | 49.68887 | 15.10939 | 22951 ft | 260 kts | 127° |
| 2026-05-04 18:02 | 49.67901 | 15.13281 | 22946 ft | 266 kts | 127° |
| 2026-05-04 18:02 | 49.66888 | 15.15688 | 22947 ft | 269 kts | 127° |
| 2026-05-04 18:03 | 49.65859 | 15.18127 | 22945 ft | 272 kts | 127° |
| 2026-05-04 18:03 | 49.64826 | 15.20587 | 22951 ft | 274 kts | 127° |
| 2026-05-04 18:03 | 49.63786 | 15.23060 | 22946 ft | 273 kts | 127° |
| 2026-05-04 18:03 | 49.62790 | 15.25415 | 22950 ft | 274 kts | 127° |
| 2026-05-04 18:04 | 49.61739 | 15.27894 | 22946 ft | 276 kts | 127° |
| 2026-05-04 18:04 | 49.60685 | 15.30382 | 22949 ft | 277 kts | 127° |
| 2026-05-04 18:04 | 49.58573 | 15.35364 | 22944 ft | 278 kts | 127° |
| 2026-05-04 18:05 | 49.57511 | 15.37861 | 22943 ft | 278 kts | 127° |
| 2026-05-04 18:05 | 49.56446 | 15.40366 | 22945 ft | 278 kts | 127° |
| 2026-05-04 18:05 | 49.55386 | 15.42854 | 22944 ft | 278 kts | 127° |
| 2026-05-04 18:05 | 49.54320 | 15.45354 | 22946 ft | 278 kts | 127° |
| 2026-05-04 18:06 | 49.52186 | 15.50355 | 22945 ft | 279 kts | 126° |
| 2026-05-04 18:06 | 49.51119 | 15.52850 | 22940 ft | 279 kts | 126° |
| 2026-05-04 18:06 | 49.50055 | 15.55339 | 22944 ft | 278 kts | 126° |
| 2026-05-04 18:07 | 49.49007 | 15.57789 | 22945 ft | 278 kts | 126° |
| 2026-05-04 18:07 | 49.47937 | 15.60288 | 22944 ft | 278 kts | 126° |
| 2026-05-04 18:07 | 49.46871 | 15.62774 | 22943 ft | 278 kts | 126° |
| 2026-05-04 18:07 | 49.45805 | 15.65254 | 22941 ft | 278 kts | 126° |
| 2026-05-04 18:08 | 49.44736 | 15.67744 | 22941 ft | 278 kts | 126° |
| 2026-05-04 18:08 | 49.43670 | 15.70223 | 22941 ft | 278 kts | 126° |
| 2026-05-04 18:08 | 49.42598 | 15.72712 | 22941 ft | 278 kts | 126° |
| 2026-05-04 18:08 | 49.41528 | 15.75197 | 22946 ft | 279 kts | 126° |
| 2026-05-04 18:09 | 49.39386 | 15.80159 | 22947 ft | 279 kts | 126° |
| 2026-05-04 18:09 | 49.37244 | 15.85117 | 22947 ft | 279 kts | 126° |
| 2026-05-04 18:10 | 49.36172 | 15.87594 | 22946 ft | 279 kts | 126° |
| 2026-05-04 18:10 | 49.35084 | 15.90104 | 22949 ft | 279 kts | 126° |
| 2026-05-04 18:10 | 49.34010 | 15.92580 | 22950 ft | 279 kts | 126° |
| 2026-05-04 18:10 | 49.32934 | 15.95059 | 22950 ft | 279 kts | 126° |
| 2026-05-04 18:11 | 49.31861 | 15.97529 | 22954 ft | 279 kts | 126° |
| 2026-05-04 18:11 | 49.30785 | 16.00002 | 22951 ft | 279 kts | 126° |
| 2026-05-04 18:11 | 49.29710 | 16.02474 | 22953 ft | 279 kts | 126° |
| 2026-05-04 18:11 | 49.28633 | 16.04941 | 22957 ft | 278 kts | 126° |
| 2026-05-04 18:12 | 49.27570 | 16.07378 | 22955 ft | 278 kts | 126° |
| 2026-05-04 18:12 | 49.26494 | 16.09845 | 22957 ft | 278 kts | 126° |
| 2026-05-04 18:12 | 49.25414 | 16.12316 | 22955 ft | 279 kts | 126° |
| 2026-05-04 18:12 | 49.24334 | 16.14784 | 22961 ft | 278 kts | 126° |
| 2026-05-04 18:13 | 49.23256 | 16.17245 | 22960 ft | 279 kts | 126° |
| 2026-05-04 18:13 | 49.22179 | 16.19709 | 22958 ft | 279 kts | 126° |
| 2026-05-04 18:13 | 49.20092 | 16.24464 | 22957 ft | 279 kts | 126° |
| 2026-05-04 18:14 | 49.18976 | 16.27001 | 22957 ft | 279 kts | 126° |
| 2026-05-04 18:14 | 49.17895 | 16.29460 | 22955 ft | 278 kts | 126° |
| 2026-05-04 18:14 | 49.16810 | 16.31927 | 22957 ft | 278 kts | 126° |
| 2026-05-04 18:15 | 49.14651 | 16.36825 | 22956 ft | 278 kts | 126° |
| 2026-05-04 18:15 | 49.12487 | 16.41722 | 22954 ft | 278 kts | 126° |
| 2026-05-04 18:15 | 49.11406 | 16.44171 | 22951 ft | 278 kts | 126° |
| 2026-05-04 18:16 | 49.10322 | 16.46620 | 22955 ft | 278 kts | 126° |
| 2026-05-04 18:16 | 49.09239 | 16.49065 | 22954 ft | 278 kts | 126° |
| 2026-05-04 18:16 | 49.08159 | 16.51497 | 22828 ft | 276 kts | 126° |
| 2026-05-04 18:17 | 49.06004 | 16.56354 | 22411 ft | 275 kts | 126° |
| 2026-05-04 18:17 | 49.04933 | 16.58767 | 22239 ft | 274 kts | 126° |
| 2026-05-04 18:17 | 49.02788 | 16.63580 | 21740 ft | 274 kts | 126° |
| 2026-05-04 18:18 | 49.01712 | 16.65992 | 21482 ft | 275 kts | 126° |
| 2026-05-04 18:18 | 49.00637 | 16.68400 | 21225 ft | 275 kts | 126° |
| 2026-05-04 18:18 | 48.99562 | 16.70805 | 20975 ft | 274 kts | 126° |
| 2026-05-04 18:18 | 48.98501 | 16.73176 | 20720 ft | 274 kts | 127° |
| 2026-05-04 18:19 | 48.96361 | 16.77954 | 20219 ft | 273 kts | 127° |
| 2026-05-04 18:19 | 48.95289 | 16.80346 | 19972 ft | 272 kts | 127° |
| 2026-05-04 18:19 | 48.94224 | 16.82717 | 19725 ft | 271 kts | 127° |
| 2026-05-04 18:20 | 48.93162 | 16.85081 | 19482 ft | 270 kts | 127° |
| 2026-05-04 18:20 | 48.92100 | 16.87442 | 19239 ft | 270 kts | 127° |
| 2026-05-04 18:20 | 48.91042 | 16.89796 | 18997 ft | 269 kts | 127° |
| 2026-05-04 18:20 | 48.89990 | 16.92140 | 18767 ft | 268 kts | 127° |
| 2026-05-04 18:21 | 48.88936 | 16.94487 | 18527 ft | 267 kts | 128° |
| 2026-05-04 18:21 | 48.87885 | 16.96810 | 18295 ft | 267 kts | 128° |
| 2026-05-04 18:21 | 48.86771 | 16.99007 | 18024 ft | 263 kts | 141° |
| 2026-05-04 18:21 | 48.85230 | 17.00396 | 17772 ft | 256 kts | 161° |
| 2026-05-04 18:22 | 48.83570 | 17.01361 | 17510 ft | 256 kts | 161° |
| 2026-05-04 18:22 | 48.81952 | 17.02495 | 17246 ft | 257 kts | 156° |
| 2026-05-04 18:22 | 48.80385 | 17.03800 | 16985 ft | 257 kts | 154° |
| 2026-05-04 18:22 | 48.78818 | 17.05103 | 16742 ft | 255 kts | 155° |
| 2026-05-04 18:23 | 48.77245 | 17.06360 | 16481 ft | 255 kts | 156° |
| 2026-05-04 18:23 | 48.75663 | 17.07582 | 16226 ft | 255 kts | 156° |
| 2026-05-04 18:23 | 48.74086 | 17.08829 | 15974 ft | 254 kts | 156° |
| 2026-05-04 18:23 | 48.72522 | 17.10073 | 15724 ft | 254 kts | 156° |
| 2026-05-04 18:24 | 48.70962 | 17.11313 | 15475 ft | 253 kts | 155° |
| 2026-05-04 18:24 | 48.69401 | 17.12556 | 15228 ft | 252 kts | 155° |
| 2026-05-04 18:24 | 48.67852 | 17.13784 | 14963 ft | 251 kts | 155° |
| 2026-05-04 18:24 | 48.66289 | 17.15014 | 14601 ft | 253 kts | 156° |
| 2026-05-04 18:25 | 48.64722 | 17.16248 | 14246 ft | 254 kts | 155° |
| 2026-05-04 18:25 | 48.63157 | 17.17491 | 13893 ft | 253 kts | 155° |
| 2026-05-04 18:25 | 48.61595 | 17.18728 | 13505 ft | 253 kts | 155° |
| 2026-05-04 18:25 | 48.60044 | 17.19953 | 13116 ft | 253 kts | 156° |
| 2026-05-04 18:26 | 48.59360 | 17.20488 | 12941 ft | 252 kts | 156° |
| 2026-05-04 18:26 | 48.57809 | 17.21710 | 12561 ft | 252 kts | 155° |
| 2026-05-04 18:26 | 48.56253 | 17.22935 | 12178 ft | 252 kts | 155° |
| 2026-05-04 18:26 | 48.54716 | 17.24150 | 11805 ft | 253 kts | 155° |
| 2026-05-04 18:27 | 48.53152 | 17.25380 | 11430 ft | 253 kts | 155° |
| 2026-05-04 18:27 | 48.51589 | 17.26605 | 11061 ft | 253 kts | 155° |
| 2026-05-04 18:27 | 48.50029 | 17.27828 | 10702 ft | 253 kts | 155° |
| 2026-05-04 18:27 | 48.48465 | 17.29059 | 10300 ft | 253 kts | 155° |
| 2026-05-04 18:28 | 48.46883 | 17.30302 | 9841 ft | 254 kts | 155° |
| 2026-05-04 18:28 | 48.45337 | 17.31513 | 9349 ft | 252 kts | 155° |
| 2026-05-04 18:28 | 48.43782 | 17.32730 | 8861 ft | 251 kts | 155° |
| 2026-05-04 18:28 | 48.42238 | 17.33940 | 8377 ft | 249 kts | 155° |
| 2026-05-04 18:29 | 48.40699 | 17.35135 | 7907 ft | 248 kts | 155° |
| 2026-05-04 18:29 | 48.39165 | 17.36319 | 7433 ft | 246 kts | 155° |
| 2026-05-04 18:29 | 48.37641 | 17.37480 | 6980 ft | 244 kts | 157° |
| 2026-05-04 18:29 | 48.36139 | 17.38554 | 6510 ft | 233 kts | 158° |
| 2026-05-04 18:30 | 48.33777 | 17.40147 | 5679 ft | 216 kts | 162° |
| 2026-05-04 18:30 | 48.32302 | 17.40792 | 5183 ft | 223 kts | 168° |
| 2026-05-04 18:30 | 48.30767 | 17.41180 | 4694 ft | 224 kts | 177° |
| 2026-05-04 18:31 | 48.29207 | 17.41259 | 4276 ft | 221 kts | 188° |
| 2026-05-04 18:31 | 48.28184 | 17.39715 | 3928 ft | 227 kts | 249° |
| 2026-05-04 18:31 | 48.27875 | 17.37428 | 3646 ft | 226 kts | 264° |
| 2026-05-04 18:31 | 48.27381 | 17.35309 | 3431 ft | 207 kts | 232° |
| 2026-05-04 18:32 | 48.26285 | 17.34047 | 3189 ft | 189 kts | 219° |
| 2026-05-04 18:32 | 48.25281 | 17.32945 | 2924 ft | 173 kts | 223° |
| 2026-05-04 18:32 | 48.24342 | 17.31693 | 2542 ft | 183 kts | 215° |
| 2026-05-04 18:32 | 48.23399 | 17.30492 | 2401 ft | 179 kts | 219° |
| 2026-05-04 18:33 | 48.22515 | 17.29201 | 2177 ft | 173 kts | 219° |
| 2026-05-04 18:33 | 48.21654 | 17.28000 | 1864 ft | 163 kts | 218° |
| 2026-05-04 18:33 | 48.20900 | 17.26914 | 1556 ft | 136 kts | 219° |
| 2026-05-04 18:33 | 48.20255 | 17.25984 | 1250 ft | 124 kts | 220° |
| 2026-05-04 18:34 | 48.19678 | 17.25135 | 1069 ft | 107 kts | 221° |
| 2026-05-04 18:34 | 48.19162 | 17.24381 | 847 ft | 100 kts | 216° |
| 2026-05-04 18:34 | 48.18671 | 17.23680 | 694 ft | 96 kts | 218° |
| 2026-05-04 18:34 | 48.18199 | 17.22993 | 574 ft | 92 kts | 222° |
| 2026-05-04 18:35 | 48.17741 | 17.22330 | 484 ft | 90 kts | 218° |
| 2026-05-04 18:35 | 48.17315 | 17.21714 | 429 ft | 78 kts | 223° |
| 2026-05-04 18:35 | 48.16979 | 17.21235 | 423 ft | 39 kts | 224° |
| 2026-05-04 18:35 | 48.16907 | 17.21068 | 426 ft | 9 kts | 285° |
| 2026-05-04 18:36 | 48.16929 | 17.21020 | 426 ft | 1 kts | 311° |
| 2026-05-04 18:36 | 48.16957 | 17.20977 | 427 ft | 10 kts | 315° |
| 2026-05-04 18:36 | 48.16979 | 17.20942 | 422 ft | 3 kts | 314° |
| 2026-05-04 18:36 | 48.16980 | 17.20941 | 422 ft | 0 kts | 314° |
| 2026-05-04 18:37 | 48.16981 | 17.20940 | 427 ft | 2 kts | 313° |
| 2026-05-04 18:37 | 48.17016 | 17.20888 | 420 ft | 12 kts | 314° |
| 2026-05-04 18:37 | 48.17092 | 17.20770 | 426 ft | 17 kts | 314° |
| 2026-05-04 18:37 | 48.17174 | 17.20636 | 425 ft | 18 kts | 313° |
| 2026-05-04 18:38 | 48.17259 | 17.20502 | 424 ft | 16 kts | 315° |
| 2026-05-04 18:38 | 48.17313 | 17.20416 | 425 ft | 7 kts | 294° |
| 2026-05-04 18:38 | 48.17298 | 17.20356 | 420 ft | 7 kts | 224° |
| 2026-05-04 18:38 | 48.17261 | 17.20305 | 425 ft | 8 kts | 223° |
| 2026-05-04 18:39 | 48.17221 | 17.20251 | 426 ft | 8 kts | 221° |
| 2026-05-04 18:39 | 48.17213 | 17.20249 | 423 ft | 2 kts | 153° |
| 2026-05-04 18:39 | 48.17201 | 17.20279 | 417 ft | 5 kts | 133° |
| 2026-05-04 18:39 | 48.17200 | 17.20282 | 426 ft | 0 kts | 133° |